Time;durP1;ratioP1;P1;durP2;ratioP2;P2;SDS_P1;SDS_P2;PMS_P1;PMS_P2;Temp;Humidity;BMP_temperature;BMP_pressure;BME280_temperature;BME280_humidity;BME280_pressure;Samples;Min_cycle;Max_cycle;Signal;HPM_P1;HPM_P2
2022/05/21 00:02:09;;;;;;;14.05;2.40;;;14.90;99.90;;;;;;5016388;28;20033;-69
2022/05/21 00:04:41;;;;;;;11.45;2.53;;;15.20;99.90;;;;;;5020062;28;20021;-69
2022/05/21 00:07:10;;;;;;;8.52;2.97;;;15.60;99.90;;;;;;5015128;28;20092;-68
2022/05/21 00:09:38;;;;;;;9.80;2.83;;;15.80;99.90;;;;;;5022842;28;20030;-69
2022/05/21 00:12:06;;;;;;;14.73;2.63;;;15.80;99.90;;;;;;5015136;28;20510;-69
2022/05/21 00:14:37;;;;;;;11.75;4.25;;;15.50;99.90;;;;;;5012373;28;20029;-68
2022/05/21 00:17:04;;;;;;;13.63;2.78;;;15.20;99.90;;;;;;5015013;28;20105;-69
2022/05/21 00:19:32;;;;;;;10.73;2.33;;;15.20;99.90;;;;;;5021603;28;20033;-69
2022/05/21 00:21:59;;;;;;;12.23;2.60;;;15.40;99.90;;;;;;5028776;28;20053;-68
2022/05/21 00:24:26;;;;;;;12.57;2.97;;;15.50;99.90;;;;;;5019084;28;20075;-69
2022/05/21 00:26:54;;;;;;;10.48;1.95;;;15.60;99.90;;;;;;5018506;28;20061;-69
2022/05/21 00:29:23;;;;;;;9.55;1.92;;;16.00;99.90;;;;;;5013110;28;20394;-69
2022/05/21 00:31:50;;;;;;;9.40;1.58;;;16.30;99.90;;;;;;5019820;28;20025;-68
2022/05/21 00:34:17;;;;;;;8.95;1.73;;;16.60;99.90;;;;;;5015860;28;20056;-69
2022/05/21 00:36:44;;;;;;;13.18;2.08;;;16.60;99.90;;;;;;5022590;28;20109;-68
2022/05/21 00:39:12;;;;;;;10.70;1.77;;;16.40;99.90;;;;;;5016189;28;20060;-69
2022/05/21 00:41:39;;;;;;;9.55;1.85;;;16.40;99.90;;;;;;5030805;28;20025;-69
2022/05/21 00:44:08;;;;;;;8.90;1.90;;;16.60;99.90;;;;;;5030588;28;20456;-69
2022/05/21 00:46:42;;;;;;;9.43;1.70;;;16.60;99.90;;;;;;5019180;28;20030;-66
2022/05/21 00:49:21;;;;;;;9.52;1.95;;;16.90;99.90;;;;;;5030856;28;20045;-67
2022/05/21 00:52:12;;;;;;;8.73;1.40;;;17.10;99.90;;;;;;5028674;28;20535;-66
2022/05/21 00:54:50;;;;;;;10.65;2.38;;;17.20;99.90;;;;;;5016551;28;20036;-67
2022/05/21 00:57:27;;;;;;;5.28;1.55;;;16.90;99.90;;;;;;5019890;28;20014;-66
2022/05/21 00:59:59;;;;;;;5.70;2.15;;;17.00;99.90;;;;;;5020004;28;20037;-68
2022/05/21 01:02:35;;;;;;;10.68;1.73;;;16.90;99.90;;;;;;5030657;28;20017;-68
2022/05/21 01:05:04;;;;;;;11.07;1.70;;;16.90;99.90;;;;;;5030960;28;20030;-69
2022/05/21 01:07:32;;;;;;;7.57;1.92;;;17.00;99.90;;;;;;5014906;28;20018;-67
2022/05/21 01:10:00;;;;;;;8.77;2.30;;;17.10;99.90;;;;;;5029674;28;20578;-66
2022/05/21 01:12:32;;;;;;;10.52;2.00;;;16.90;99.90;;;;;;5029262;28;20108;-66
2022/05/21 01:15:03;;;;;;;9.80;2.30;;;16.90;99.90;;;;;;5025879;28;20082;-65
2022/05/21 01:17:31;;;;;;;8.40;2.35;;;16.90;99.90;;;;;;5011190;28;20088;-66
2022/05/21 01:20:02;;;;;;;12.15;1.98;;;16.90;99.90;;;;;;5014997;28;20036;-66
2022/05/21 01:22:31;;;;;;;7.93;1.65;;;16.90;99.90;;;;;;5019167;28;20526;-66
2022/05/21 01:24:59;;;;;;;10.68;1.83;;;16.90;99.90;;;;;;5032042;28;20022;-66
2022/05/21 01:27:28;;;;;;;10.02;2.33;;;16.90;99.90;;;;;;5025151;28;20026;-66
2022/05/21 01:29:56;;;;;;;9.07;2.35;;;16.90;99.90;;;;;;5012552;28;20133;-69
2022/05/21 01:32:23;;;;;;;10.93;2.63;;;16.90;99.90;;;;;;5017109;28;20026;-69
2022/05/21 01:34:51;;;;;;;9.65;1.92;;;16.80;99.90;;;;;;5020611;28;20025;-69
2022/05/21 01:37:19;;;;;;;11.70;1.98;;;16.80;99.90;;;;;;5027138;28;20547;-69
2022/05/21 01:39:46;;;;;;;10.10;1.88;;;16.80;99.90;;;;;;5031906;28;20087;-69
2022/05/21 01:42:13;;;;;;;6.40;1.83;;;16.70;99.90;;;;;;5029869;28;20025;-68
2022/05/21 01:44:41;;;;;;;13.00;2.22;;;16.70;99.90;;;;;;5029870;28;20040;-68
2022/05/21 01:47:14;;;;;;;9.27;1.80;;;16.70;99.90;;;;;;5030764;28;20053;-69
2022/05/21 01:49:43;;;;;;;6.95;1.33;;;16.70;99.90;;;;;;5015778;28;20029;-69
2022/05/21 01:52:11;;;;;;;7.40;1.83;;;16.70;99.90;;;;;;5016331;28;20049;-68
2022/05/21 01:54:39;;;;;;;7.82;1.17;;;16.80;99.90;;;;;;5016133;28;20029;-69
2022/05/21 01:57:07;;;;;;;9.52;1.83;;;17.00;99.90;;;;;;5016553;28;20097;-70
2022/05/21 01:59:34;;;;;;;6.85;1.58;;;17.00;99.90;;;;;;5020691;28;20039;-68
2022/05/21 02:02:02;;;;;;;5.55;1.35;;;16.80;99.90;;;;;;5032348;28;20476;-69
2022/05/21 02:04:30;;;;;;;10.02;2.13;;;16.90;99.90;;;;;;5015917;28;20032;-66
2022/05/21 02:06:57;;;;;;;7.45;0.73;;;16.80;99.90;;;;;;5016620;28;20038;-68
2022/05/21 02:09:24;;;;;;;5.30;1.00;;;17.00;99.90;;;;;;5021977;28;20030;-68
2022/05/21 02:11:52;;;;;;;6.00;0.90;;;17.20;99.90;;;;;;5034263;28;20164;-68
2022/05/21 02:14:19;;;;;;;10.18;1.05;;;17.40;99.90;;;;;;5035908;28;20096;-68
2022/05/21 02:16:46;;;;;;;5.40;0.50;;;17.50;99.90;;;;;;5030049;28;20061;-67
2022/05/21 02:19:13;;;;;;;7.03;0.75;;;17.50;99.90;;;;;;5029270;28;20032;-67
2022/05/21 02:21:42;;;;;;;6.35;0.70;;;17.50;99.90;;;;;;5032201;28;20017;-68
2022/05/21 02:24:10;;;;;;;4.05;0.60;;;17.60;99.90;;;;;;5024380;28;20025;-69
2022/05/21 02:26:39;;;;;;;2.28;0.63;;;17.60;99.90;;;;;;5033825;28;20024;-68
2022/05/21 02:29:07;;;;;;;9.40;0.40;;;17.60;99.90;;;;;;5034833;28;20033;-68
2022/05/21 02:31:35;;;;;;;4.75;0.55;;;17.70;99.90;;;;;;5033915;28;20322;-68
2022/05/21 02:34:02;;;;;;;5.88;0.52;;;17.70;99.90;;;;;;5022548;28;20041;-68
2022/05/21 02:39:29;;;;;;;6.45;0.40;;;17.80;99.90;;;;;;5028399;28;20044;-68
2022/05/21 02:41:58;;;;;;;4.43;0.82;;;17.80;99.90;;;;;;5023603;28;20038;-68
2022/05/21 02:44:26;;;;;;;6.00;0.50;;;17.90;99.90;;;;;;5016910;28;20374;-68
2022/05/21 02:46:55;;;;;;;6.22;0.60;;;17.80;99.90;;;;;;5018196;28;20052;-67
2022/05/21 02:49:23;;;;;;;5.28;0.30;;;17.80;99.90;;;;;;5018355;28;20075;-68
2022/05/21 02:51:50;;;;;;;8.60;1.00;;;17.80;99.90;;;;;;5020951;28;20405;-67
2022/05/21 02:54:19;;;;;;;5.18;0.75;;;17.80;99.90;;;;;;5020598;28;20041;-68
2022/05/21 02:56:51;;;;;;;3.70;0.75;;;17.80;99.90;;;;;;5024757;28;20085;-67
2022/05/21 02:59:19;;;;;;;3.97;0.50;;;17.80;99.90;;;;;;5035333;28;20504;-69
2022/05/21 03:01:47;;;;;;;3.33;0.57;;;17.80;99.90;;;;;;5034255;28;20033;-67
2022/05/21 03:04:14;;;;;;;5.72;0.88;;;17.80;99.90;;;;;;4998290;28;20096;-67
2022/05/21 03:06:41;;;;;;;7.60;0.88;;;17.70;99.90;;;;;;5019533;28;20022;-66
2022/05/21 03:11:54;;;;;;;6.35;0.82;;;17.80;99.90;;;;;;5020248;28;20040;-67
2022/05/21 03:14:21;;;;;;;5.65;0.77;;;17.70;99.90;;;;;;5014568;28;20030;-67
2022/05/21 03:16:48;;;;;;;6.05;0.75;;;17.60;99.90;;;;;;5026779;28;20018;-66
2022/05/21 03:19:15;;;;;;;3.45;0.60;;;17.50;99.90;;;;;;5022118;28;20446;-67
2022/05/21 03:21:43;;;;;;;2.47;0.60;;;17.50;99.90;;;;;;5017719;28;20477;-68
2022/05/21 03:24:10;;;;;;;5.45;0.80;;;17.40;99.90;;;;;;5025415;28;20460;-67
2022/05/21 03:26:37;;;;;;;7.80;0.73;;;17.40;99.90;;;;;;5019815;28;20088;-68
2022/05/21 03:29:04;;;;;;;5.78;0.68;;;17.30;99.90;;;;;;5028164;28;20045;-68
2022/05/21 03:31:32;;;;;;;4.95;0.57;;;17.30;99.90;;;;;;5023983;28;20386;-68
2022/05/21 03:34:00;;;;;;;6.07;0.73;;;17.40;99.90;;;;;;5031195;28;20037;-68
2022/05/21 03:36:27;;;;;;;7.45;0.80;;;17.40;99.90;;;;;;5029349;28;20025;-69
2022/05/21 03:38:55;;;;;;;6.72;0.63;;;17.50;99.90;;;;;;5015352;28;20260;-67
2022/05/21 03:41:23;;;;;;;5.28;0.60;;;17.60;99.90;;;;;;5016570;28;20021;-67
2022/05/21 03:43:52;;;;;;;4.28;0.40;;;17.60;99.90;;;;;;5022766;28;20029;-67
2022/05/21 03:46:19;;;;;;;8.20;1.08;;;17.60;99.90;;;;;;5033657;28;20542;-66
2022/05/21 03:48:47;;;;;;;3.22;0.50;;;17.60;99.90;;;;;;5015771;28;20045;-67
2022/05/21 03:51:14;;;;;;;4.88;0.50;;;17.60;99.90;;;;;;5015276;28;20026;-67
2022/05/21 03:53:42;;;;;;;2.60;0.43;;;17.60;99.90;;;;;;5027892;28;20405;-67
2022/05/21 03:56:09;;;;;;;5.28;0.60;;;17.60;99.90;;;;;;5019260;28;20034;-67
2022/05/21 03:58:37;;;;;;;5.60;0.43;;;17.50;99.90;;;;;;5016328;28;20057;-66
2022/05/21 04:01:04;;;;;;;5.38;0.50;;;17.50;99.90;;;;;;5016926;28;20030;-67
2022/05/21 04:03:34;;;;;;;3.97;0.70;;;17.40;99.90;;;;;;5027688;28;20108;-67
2022/05/21 04:06:01;;;;;;;4.90;0.88;;;17.40;99.90;;;;;;5025339;28;20030;-67
2022/05/21 04:08:28;;;;;;;4.85;0.80;;;17.50;99.90;;;;;;5025628;28;20026;-67
2022/05/21 04:10:56;;;;;;;5.00;0.88;;;17.50;99.90;;;;;;5016628;28;20037;-67
2022/05/21 04:13:23;;;;;;;6.18;0.63;;;17.40;99.90;;;;;;5018178;28;20112;-67
2022/05/21 04:15:50;;;;;;;3.33;0.88;;;17.20;99.90;;;;;;5013336;28;20026;-67
2022/05/21 04:18:19;;;;;;;4.68;1.52;;;17.20;99.90;;;;;;5017584;28;20048;-67
2022/05/21 04:20:47;;;;;;;11.00;1.55;;;17.10;99.90;;;;;;5013890;28;20022;-66
2022/05/21 04:23:20;;;;;;;8.70;2.00;;;17.00;99.90;;;;;;5022260;28;20027;-67
2022/05/21 04:25:48;;;;;;;8.85;1.35;;;16.90;99.90;;;;;;5016402;28;20037;-67
2022/05/21 04:28:15;;;;;;;4.60;0.80;;;16.80;99.90;;;;;;5021617;28;20044;-68
2022/05/21 04:30:42;;;;;;;4.60;0.60;;;16.80;99.90;;;;;;5020270;28;20022;-67
2022/05/21 04:33:10;;;;;;;3.47;0.60;;;16.80;99.90;;;;;;5021484;28;20112;-67
2022/05/21 04:38:22;;;;;;;4.45;0.77;;;16.80;99.90;;;;;;5015966;28;20060;-67
2022/05/21 04:40:50;;;;;;;4.82;0.50;;;16.80;99.90;;;;;;5014689;28;20026;-67
2022/05/21 04:43:17;;;;;;;3.80;0.40;;;16.80;99.90;;;;;;5016686;28;20030;-67
2022/05/21 04:45:44;;;;;;;2.78;0.93;;;16.80;99.90;;;;;;5017772;28;20036;-68
2022/05/21 04:48:11;;;;;;;4.47;0.82;;;16.80;99.90;;;;;;5018531;28;20022;-67
2022/05/21 04:50:39;;;;;;;3.17;0.60;;;16.90;99.90;;;;;;5014623;28;20427;-68
2022/05/21 04:53:07;;;;;;;5.35;0.40;;;16.80;99.90;;;;;;5019006;28;20054;-67
2022/05/21 04:55:34;;;;;;;5.25;0.90;;;16.90;99.90;;;;;;5015447;28;20024;-67
2022/05/21 04:58:02;;;;;;;2.13;0.60;;;16.90;99.90;;;;;;5017825;28;20037;-68
2022/05/21 05:00:29;;;;;;;5.22;0.65;;;16.90;99.90;;;;;;5020591;28;20108;-67
2022/05/21 05:02:56;;;;;;;3.13;0.52;;;16.90;99.90;;;;;;5020918;28;20557;-67
2022/05/21 05:05:23;;;;;;;4.75;0.50;;;16.90;99.90;;;;;;5020483;28;20376;-68
2022/05/21 05:07:51;;;;;;;4.40;1.20;;;17.00;99.90;;;;;;5012924;28;20030;-67
2022/05/21 05:10:19;;;;;;;4.32;0.90;;;17.10;99.90;;;;;;5023610;28;20034;-68
2022/05/21 05:12:46;;;;;;;5.45;0.90;;;17.00;99.90;;;;;;5014616;28;20030;-67
2022/05/21 05:15:13;;;;;;;4.18;0.52;;;17.00;99.90;;;;;;5015602;28;20076;-68
2022/05/21 05:17:40;;;;;;;7.20;1.33;;;17.10;99.90;;;;;;5018323;28;20049;-67
2022/05/21 05:20:08;;;;;;;5.47;1.27;;;17.10;99.90;;;;;;5024549;28;20029;-69
2022/05/21 05:22:35;;;;;;;3.65;0.75;;;17.00;99.90;;;;;;5022911;28;20083;-69
2022/05/21 05:25:04;;;;;;;3.55;0.82;;;17.00;99.90;;;;;;5023987;28;20536;-70
2022/05/21 05:27:31;;;;;;;4.47;0.98;;;16.90;99.90;;;;;;5020770;28;20030;-70
2022/05/21 05:30:03;;;;;;;11.35;1.30;;;16.90;99.90;;;;;;5020354;28;20037;-70
2022/05/21 05:32:30;;;;;;;5.55;1.05;;;16.90;99.90;;;;;;5025632;28;20089;-70
2022/05/21 05:34:57;;;;;;;3.88;0.73;;;16.80;99.90;;;;;;5035286;28;20043;-69
2022/05/21 05:37:25;;;;;;;7.97;1.05;;;16.80;99.90;;;;;;5034695;28;20025;-71
2022/05/21 05:39:55;;;;;;;8.35;0.88;;;16.90;99.90;;;;;;5035004;28;20021;-72
2022/05/21 05:42:22;;;;;;;3.92;0.60;;;16.90;99.90;;;;;;5033241;28;20029;-72
2022/05/21 05:44:50;;;;;;;2.95;0.85;;;16.90;99.90;;;;;;5032835;28;20025;-72
2022/05/21 05:47:17;;;;;;;5.35;1.10;;;16.90;99.90;;;;;;5033890;28;20024;-71
2022/05/21 05:49:44;;;;;;;3.85;0.63;;;16.90;99.90;;;;;;5030382;28;20030;-72
2022/05/21 05:52:12;;;;;;;5.05;0.63;;;16.90;99.90;;;;;;5038645;28;20060;-72
2022/05/21 05:54:39;;;;;;;2.58;0.40;;;16.80;99.90;;;;;;5040844;28;20037;-72
2022/05/21 05:57:12;;;;;;;7.70;1.00;;;16.70;99.90;;;;;;5031482;28;20494;-72
2022/05/21 05:59:49;;;;;;;2.77;0.70;;;16.70;99.90;;;;;;5024172;28;20037;-71
2022/05/21 06:05:17;;;;;;;4.32;1.13;;;16.70;99.90;;;;;;5022444;28;20040;-70
2022/05/21 06:07:53;;;;;;;5.17;0.93;;;16.60;99.90;;;;;;5036123;28;20026;-71
2022/05/21 06:10:27;;;;;;;3.85;0.50;;;16.50;99.90;;;;;;5021856;28;20337;-72
2022/05/21 06:12:55;;;;;;;3.35;0.45;;;16.30;99.90;;;;;;5046298;28;20125;-70
2022/05/21 06:15:22;;;;;;;4.57;0.40;;;16.20;99.90;;;;;;5028029;28;20555;-71
2022/05/21 06:17:50;;;;;;;4.55;0.80;;;16.10;99.90;;;;;;5029784;28;20105;-69
2022/05/21 06:20:20;;;;;;;5.68;0.65;;;15.90;99.90;;;;;;5029016;28;20033;-72
2022/05/21 06:22:48;;;;;;;6.95;0.88;;;15.90;99.90;;;;;;5026766;28;20102;-72
2022/05/21 06:25:17;;;;;;;14.30;2.00;;;15.60;99.90;;;;;;5023567;28;20037;-71
2022/05/21 06:27:47;;;;;;;23.55;6.20;;;15.50;99.90;;;;;;5025653;28;20025;-69
2022/05/21 06:30:15;;;;;;;5.95;1.42;;;15.40;99.90;;;;;;5028697;28;20116;-72
2022/05/21 06:32:43;;;;;;;9.43;3.45;;;15.50;99.90;;;;;;5025915;28;20034;-73
2022/05/21 06:35:12;;;;;;;5.25;0.75;;;15.50;99.90;;;;;;5018909;28;20025;-72
2022/05/21 06:37:39;;;;;;;7.32;1.00;;;15.60;99.90;;;;;;5016964;28;20018;-72
2022/05/21 06:40:08;;;;;;;8.82;1.95;;;15.60;99.90;;;;;;5024328;28;20029;-71
2022/05/21 06:42:36;;;;;;;9.07;0.90;;;15.80;99.90;;;;;;5022633;28;20036;-73
2022/05/21 06:45:03;;;;;;;5.45;1.23;;;15.80;99.90;;;;;;5026417;28;20174;-73
2022/05/21 06:47:30;;;;;;;8.90;4.35;;;15.80;99.90;;;;;;5023433;28;20029;-75
2022/05/21 06:49:59;;;;;;;9.05;3.17;;;15.90;99.90;;;;;;5024665;28;20025;-72
2022/05/21 06:52:30;;;;;;;5.75;1.45;;;15.80;99.90;;;;;;5022142;28;20482;-73
2022/05/21 06:54:58;;;;;;;5.63;1.27;;;15.50;99.90;;;;;;5026474;28;20491;-73
2022/05/21 06:57:28;;;;;;;4.55;1.50;;;15.30;99.90;;;;;;5020000;28;20044;-71
2022/05/21 06:59:56;;;;;;;6.28;1.10;;;15.20;99.90;;;;;;5024839;28;20039;-72
2022/05/21 07:02:24;;;;;;;6.38;1.15;;;15.20;99.90;;;;;;5028349;28;20375;-73
2022/05/21 07:07:48;;;;;;;14.02;1.27;;;15.30;99.90;;;;;;5023170;28;20040;-73
2022/05/21 07:10:24;;;;;;;16.35;2.25;;;15.30;99.90;;;;;;5027522;28;20060;-72
2022/05/21 07:12:52;;;;;;;7.85;2.08;;;15.40;99.90;;;;;;5021333;28;20486;-72
2022/05/21 07:15:19;;;;;;;6.60;1.38;;;15.50;99.90;;;;;;5026886;28;20112;-73
2022/05/21 07:17:47;;;;;;;5.72;1.17;;;15.50;99.90;;;;;;5022205;28;20037;-73
2022/05/21 07:20:19;;;;;;;2.45;0.93;;;15.40;99.90;;;;;;5028092;28;20022;-72
2022/05/21 07:22:49;;;;;;;3.90;1.05;;;15.40;99.90;;;;;;5027245;28;20393;-72
2022/05/21 07:25:23;;;;;;;6.57;2.00;;;15.40;99.90;;;;;;5025122;28;20405;-69
2022/05/21 07:27:51;;;;;;;14.15;2.25;;;15.40;99.90;;;;;;5017822;28;20022;-69
2022/05/21 07:30:19;;;;;;;10.05;1.45;;;15.30;99.90;;;;;;5023233;28;20037;-71
2022/05/21 07:32:50;;;;;;;6.35;2.33;;;15.30;99.90;;;;;;5023897;28;20501;-72
2022/05/21 07:35:19;;;;;;;13.80;5.72;;;15.30;99.90;;;;;;5024526;28;20026;-71
2022/05/21 07:37:47;;;;;;;12.32;3.47;;;15.30;99.90;;;;;;5031888;28;20083;-71
2022/05/21 07:40:17;;;;;;;8.48;2.78;;;15.30;99.90;;;;;;5020704;28;20136;-71
2022/05/21 07:42:44;;;;;;;9.93;2.42;;;15.30;99.90;;;;;;5015940;28;20482;-71
2022/05/21 07:45:14;;;;;;;6.97;1.27;;;15.40;99.90;;;;;;5013578;28;20046;-71
2022/05/21 07:47:41;;;;;;;11.75;2.58;;;15.30;99.90;;;;;;5022249;28;20032;-71
2022/05/21 07:50:09;;;;;;;9.50;1.73;;;15.30;99.90;;;;;;5022381;28;20395;-70
2022/05/21 07:52:37;;;;;;;10.48;1.80;;;15.30;99.90;;;;;;5017335;28;20477;-71
2022/05/21 07:55:05;;;;;;;15.20;1.83;;;15.30;99.90;;;;;;5019474;28;20025;-71
2022/05/21 07:57:32;;;;;;;4.20;1.40;;;15.30;99.90;;;;;;5020172;28;20029;-71
2022/05/21 08:00:00;;;;;;;8.55;2.13;;;15.30;99.90;;;;;;5013230;28;20022;-71
2022/05/21 08:02:27;;;;;;;8.25;0.98;;;15.20;99.90;;;;;;5017745;28;20037;-71
2022/05/21 08:04:54;;;;;;;6.60;1.35;;;15.20;99.90;;;;;;5021458;28;20029;-71
2022/05/21 08:07:21;;;;;;;13.90;4.22;;;15.20;99.90;;;;;;5017553;28;20049;-72
2022/05/21 08:09:49;;;;;;;5.75;1.45;;;15.20;99.90;;;;;;5022008;28;20117;-71
2022/05/21 08:12:17;;;;;;;6.28;1.65;;;15.10;99.90;;;;;;5020086;28;20069;-71
2022/05/21 08:14:45;;;;;;;9.20;2.13;;;15.10;99.90;;;;;;5013926;28;20101;-70
2022/05/21 08:17:13;;;;;;;12.10;2.25;;;15.10;99.90;;;;;;5014714;28;20049;-71
2022/05/21 08:19:41;;;;;;;7.65;1.83;;;15.10;99.90;;;;;;5016870;28;20025;-70
2022/05/21 08:27:57;;;;;;;5.40;1.60;;;15.10;99.90;;;;;;5021810;28;20543;-70
2022/05/21 08:30:24;;;;;;;3.92;1.25;;;15.10;99.90;;;;;;5025078;28;20441;-70
2022/05/21 08:33:04;;;;;;;6.25;2.08;;;15.20;99.90;;;;;;5021193;28;20438;-70
2022/05/21 08:35:32;;;;;;;11.07;4.25;;;15.20;99.90;;;;;;5024830;28;20026;-70
2022/05/21 08:38:00;;;;;;;16.52;3.70;;;15.20;99.90;;;;;;5015549;28;20026;-71
2022/05/21 08:40:40;;;;;;;9.13;2.60;;;15.20;99.90;;;;;;5019723;28;20470;-70
2022/05/21 08:43:19;;;;;;;11.75;5.40;;;15.20;99.90;;;;;;5021357;28;20021;-70
2022/05/21 08:45:55;;;;;;;10.48;5.05;;;15.20;99.90;;;;;;5013274;28;20022;-70
2022/05/21 08:48:23;;;;;;;10.00;4.40;;;15.10;99.90;;;;;;5017284;28;20032;-71
2022/05/21 08:50:54;;;;;;;10.32;5.00;;;15.10;99.90;;;;;;5011056;28;20124;-70
2022/05/21 08:53:25;;;;;;;7.72;2.08;;;15.10;99.90;;;;;;5023674;28;20045;-70
2022/05/21 08:55:56;;;;;;;6.93;2.78;;;15.00;99.90;;;;;;5031699;28;20032;-70
2022/05/21 08:58:44;;;;;;;8.80;2.85;;;15.10;99.90;;;;;;5016739;28;20080;-71
2022/05/21 09:01:12;;;;;;;12.15;3.30;;;15.10;99.90;;;;;;5024872;28;20030;-71
2022/05/21 09:03:40;;;;;;;7.00;2.70;;;15.00;99.90;;;;;;5012868;28;20051;-71
2022/05/21 09:06:16;;;;;;;8.13;2.88;;;15.00;99.90;;;;;;5013025;28;20032;-71
2022/05/21 09:09:03;;;;;;;5.97;2.97;;;15.00;99.90;;;;;;5028325;28;20034;-71
2022/05/21 09:11:49;;;;;;;13.23;3.60;;;15.10;99.90;;;;;;5032525;28;20017;-71
2022/05/21 09:14:31;;;;;;;12.02;4.00;;;15.10;99.90;;;;;;5023335;28;20033;-70
2022/05/21 09:17:00;;;;;;;12.77;4.82;;;15.10;99.90;;;;;;5019209;28;20109;-70
2022/05/21 09:19:42;;;;;;;13.63;4.50;;;15.10;99.90;;;;;;5012895;28;20037;-70
2022/05/21 09:22:16;;;;;;;11.77;4.65;;;15.10;99.90;;;;;;5013889;28;20470;-70
2022/05/21 09:24:49;;;;;;;14.32;3.97;;;15.00;99.90;;;;;;5012720;28;20026;-71
2022/05/21 09:27:46;;;;;;;11.23;4.47;;;15.00;99.90;;;;;;5012763;28;20113;-71
2022/05/21 09:30:22;;;;;;;10.10;4.07;;;15.00;99.90;;;;;;5012306;28;20092;-70
2022/05/21 09:32:53;;;;;;;10.65;3.70;;;14.90;99.90;;;;;;5016971;28;20331;-70
2022/05/21 09:35:50;;;;;;;14.88;5.18;;;15.00;99.90;;;;;;5022929;28;20030;-70
2022/05/21 09:38:30;;;;;;;12.15;5.00;;;15.00;99.90;;;;;;5021142;28;20088;-71
2022/05/21 09:41:11;;;;;;;10.10;4.20;;;14.90;99.90;;;;;;5031778;28;20028;-71
2022/05/21 09:46:34;;;;;;;16.45;6.28;;;14.80;99.90;;;;;;5023975;28;20052;-71
2022/05/21 09:49:18;;;;;;;13.75;6.70;;;14.80;99.90;;;;;;5016420;28;20125;-71
2022/05/21 09:51:58;;;;;;;9.37;5.03;;;14.90;99.90;;;;;;5030471;28;20049;-71
2022/05/21 09:54:36;;;;;;;16.60;5.88;;;14.90;99.90;;;;;;5012662;28;20276;-70
2022/05/21 09:57:05;;;;;;;16.48;7.10;;;14.80;99.90;;;;;;5011834;28;20036;-71
2022/05/21 09:59:40;;;;;;;14.65;5.32;;;14.90;99.90;;;;;;5011048;28;20034;-71
2022/05/21 10:02:19;;;;;;;14.50;4.72;;;14.90;99.90;;;;;;5015349;28;20351;-71
2022/05/21 10:05:00;;;;;;;10.45;5.00;;;14.90;99.90;;;;;;5032152;28;20056;-71
2022/05/21 10:11:03;;;;;;;12.40;5.63;;;15.00;99.90;;;;;;5034830;28;20164;-70
2022/05/21 10:13:49;;;;;;;14.52;5.20;;;14.90;99.90;;;;;;5033254;28;20044;-71
2022/05/21 10:16:58;;;;;;;11.35;5.82;;;14.90;99.90;;;;;;5035603;28;20076;-70
2022/05/21 10:19:50;;;;;;;8.05;3.78;;;14.90;99.90;;;;;;5014654;28;20041;-70
2022/05/21 10:22:26;;;;;;;12.48;5.45;;;14.80;99.90;;;;;;5029671;28;20026;-71
2022/05/21 10:25:05;;;;;;;9.40;5.78;;;14.90;99.90;;;;;;5026081;28;20032;-71
2022/05/21 10:28:08;;;;;;;12.40;6.03;;;14.90;99.90;;;;;;5026849;28;20030;-70
2022/05/21 10:30:44;;;;;;;13.20;5.75;;;14.80;99.90;;;;;;5032324;28;20049;-70
2022/05/21 10:33:40;;;;;;;11.65;4.95;;;14.90;99.90;;;;;;5021903;28;20026;-70
2022/05/21 10:36:07;;;;;;;9.98;4.63;;;14.90;99.90;;;;;;5027057;28;21141;-71
2022/05/21 10:38:46;;;;;;;8.75;5.30;;;14.80;99.90;;;;;;5015628;28;20037;-70
2022/05/21 10:41:51;;;;;;;9.90;5.47;;;14.80;99.90;;;;;;5015592;28;20521;-70
2022/05/21 10:44:19;;;;;;;11.38;4.32;;;14.80;99.90;;;;;;5017972;28;20030;-68
2022/05/21 10:47:24;;;;;;;10.25;5.55;;;14.80;99.90;;;;;;5015448;28;20022;-68
2022/05/21 10:49:58;;;;;;;10.80;5.65;;;14.80;99.90;;;;;;5019968;28;20065;-68
2022/05/21 10:52:58;;;;;;;13.80;5.53;;;14.90;99.90;;;;;;5019363;28;20128;-68
2022/05/21 10:55:41;;;;;;;15.77;5.82;;;14.80;99.90;;;;;;5020335;28;20029;-68
2022/05/21 10:58:32;;;;;;;11.23;5.45;;;14.80;99.90;;;;;;5015470;28;20030;-68
2022/05/21 11:01:25;;;;;;;11.25;5.38;;;14.80;99.90;;;;;;5017434;28;20088;-69
2022/05/21 11:04:20;;;;;;;6.85;4.07;;;14.70;99.90;;;;;;5013771;28;20033;-68
2022/05/21 11:07:24;;;;;;;11.10;4.03;;;14.80;99.90;;;;;;5027109;28;20032;-68
2022/05/21 11:10:14;;;;;;;7.13;3.20;;;14.80;99.90;;;;;;5014866;28;20034;-68
2022/05/21 11:12:53;;;;;;;10.48;3.45;;;14.80;99.90;;;;;;5022556;28;20036;-68
2022/05/21 11:16:04;;;;;;;9.40;5.07;;;14.70;99.90;;;;;;5034456;28;20049;-71
2022/05/21 11:18:53;;;;;;;8.60;4.90;;;14.70;99.90;;;;;;5017616;28;20088;-71
2022/05/21 11:21:31;;;;;;;9.85;3.55;;;14.60;99.90;;;;;;5013239;28;20029;-70
2022/05/21 11:24:10;;;;;;;11.07;5.38;;;14.50;99.90;;;;;;5021102;28;20068;-70
2022/05/21 11:27:00;;;;;;;8.13;4.63;;;14.50;99.90;;;;;;5013816;28;20026;-70
2022/05/21 11:29:59;;;;;;;6.35;3.17;;;14.50;99.90;;;;;;5017332;28;20031;-70
2022/05/21 11:38:44;;;;;;;;;;;14.60;99.90;;;;;;5025629;28;20452;-70
2022/05/21 11:41:29;;;;;;;7.93;3.72;;;14.50;99.90;;;;;;5031910;28;20275;-70
2022/05/21 11:47:14;;;;;;;7.63;4.57;;;14.50;99.90;;;;;;5031967;28;20035;-70
2022/05/21 11:49:45;;;;;;;8.73;5.00;;;14.50;99.90;;;;;;5031617;28;20061;-71
2022/05/21 11:52:28;;;;;;;8.27;5.15;;;14.50;99.90;;;;;;5028469;28;20508;-71
2022/05/21 11:54:58;;;;;;;10.48;4.75;;;14.50;99.90;;;;;;5013104;28;20096;-70
2022/05/21 11:57:37;;;;;;;12.82;6.32;;;14.40;99.90;;;;;;5025431;28;20034;-70
2022/05/21 12:00:16;;;;;;;9.50;5.60;;;14.40;99.90;;;;;;5033608;28;20022;-70
2022/05/21 12:02:56;;;;;;;8.90;6.35;;;14.40;99.90;;;;;;5021026;28;20045;-70
2022/05/21 12:05:40;;;;;;;9.13;6.68;;;14.50;99.90;;;;;;5030838;28;20034;-70
2022/05/21 12:08:32;;;;;;;11.57;8.20;;;14.40;99.90;;;;;;5032253;28;20021;-71
2022/05/21 12:11:36;;;;;;;20.35;9.30;;;14.40;99.90;;;;;;5029480;28;20129;-71
2022/05/21 12:14:27;;;;;;;13.10;8.60;;;14.40;99.90;;;;;;5014212;28;20585;-71
2022/05/21 12:16:58;;;;;;;11.32;7.40;;;14.40;99.90;;;;;;5014027;28;20037;-71
2022/05/21 12:19:44;;;;;;;11.20;6.97;;;14.50;99.90;;;;;;5013744;28;20030;-71
2022/05/21 12:22:31;;;;;;;9.73;7.35;;;14.50;99.90;;;;;;5014230;28;20029;-71
2022/05/21 12:24:58;;;;;;;8.18;5.85;;;14.50;99.90;;;;;;5013856;28;20030;-71
2022/05/21 12:27:27;;;;;;;11.73;5.50;;;14.40;99.90;;;;;;5022650;28;20120;-71
2022/05/21 12:30:13;;;;;;;8.07;5.38;;;14.50;99.90;;;;;;5032835;28;20041;-71
2022/05/21 12:32:40;;;;;;;8.07;4.57;;;14.50;99.90;;;;;;5014900;28;20030;-71
2022/05/21 12:35:16;;;;;;;9.27;5.90;;;14.50;99.90;;;;;;5025067;28;20041;-71
2022/05/21 12:37:50;;;;;;;8.13;4.57;;;14.50;99.90;;;;;;5026937;28;20025;-71
2022/05/21 12:40:30;;;;;;;7.38;4.60;;;14.50;99.90;;;;;;5031026;28;20099;-71
2022/05/21 12:43:07;;;;;;;10.57;5.72;;;14.40;99.90;;;;;;5021794;28;20077;-70
2022/05/21 12:45:49;;;;;;;8.43;4.60;;;14.50;99.90;;;;;;5013278;28;20041;-71
2022/05/21 12:48:22;;;;;;;10.48;4.40;;;14.50;99.90;;;;;;5024806;28;20029;-71
2022/05/21 12:50:58;;;;;;;8.27;4.80;;;14.40;99.90;;;;;;5033068;28;20029;-71
2022/05/21 12:53:28;;;;;;;6.80;4.10;;;14.50;99.90;;;;;;5016336;28;20054;-71
2022/05/21 12:56:05;;;;;;;5.82;4.43;;;14.50;99.90;;;;;;5021488;28;20121;-71
2022/05/21 12:58:33;;;;;;;10.40;4.38;;;14.40;99.90;;;;;;5014311;28;20030;-70
2022/05/21 13:01:00;;;;;;;6.55;4.40;;;14.40;99.90;;;;;;5024244;28;20026;-70
2022/05/21 13:03:33;;;;;;;6.65;4.22;;;14.40;99.90;;;;;;5018547;28;20292;-71
2022/05/21 13:06:03;;;;;;;7.13;4.50;;;14.30;99.90;;;;;;5022689;28;20434;-70
2022/05/21 13:08:32;;;;;;;7.53;4.90;;;14.30;99.90;;;;;;5012542;28;20033;-71
2022/05/21 13:11:41;;;;;;;10.55;4.78;;;14.30;99.90;;;;;;5012606;28;20109;-70
2022/05/21 13:14:17;;;;;;;7.50;5.55;;;14.30;99.90;;;;;;5026390;28;20418;-70
2022/05/21 13:16:54;;;;;;;7.30;5.35;;;14.20;99.90;;;;;;5023898;28;20037;-70
2022/05/21 13:19:41;;;;;;;6.82;5.07;;;14.20;99.90;;;;;;5011840;28;20052;-71
2022/05/21 13:22:37;;;;;;;8.07;5.35;;;14.20;99.90;;;;;;5014875;28;20038;-70
2022/05/21 13:25:15;;;;;;;9.25;6.32;;;14.10;99.90;;;;;;5031590;28;20616;-71
2022/05/21 13:27:54;;;;;;;7.50;5.65;;;14.00;99.90;;;;;;5022212;28;20483;-71
2022/05/21 13:30:36;;;;;;;8.35;6.25;;;14.00;99.90;;;;;;5012937;28;20057;-71
2022/05/21 13:33:13;;;;;;;6.35;5.75;;;14.00;99.90;;;;;;5018522;28;20029;-70
2022/05/21 13:35:42;;;;;;;11.63;6.30;;;14.00;99.90;;;;;;5029887;28;20034;-70
2022/05/21 13:38:16;;;;;;;15.77;6.78;;;14.00;99.90;;;;;;5019401;28;20505;-71
2022/05/21 13:40:52;;;;;;;8.20;5.75;;;13.90;99.90;;;;;;5014529;28;20542;-71
2022/05/21 13:43:28;;;;;;;7.70;5.93;;;14.00;99.90;;;;;;5016701;28;20444;-71
2022/05/21 13:45:59;;;;;;;8.18;6.40;;;14.00;99.90;;;;;;5016541;28;20060;-71
2022/05/21 13:48:35;;;;;;;8.43;6.05;;;14.00;99.90;;;;;;5019176;28;20030;-70